Thunder radar more information blitzortung!


Varsler for Snø/Is  rain snow radar



Snø/Is Fra: 13-12-2019 19:00 Til: 14-12-2019 07:00 advarsel for: Snø/Is Level: Gul info button

Nearby METAR Reports

   
ENZV - Stavanger
Oppdatert: Dec 13 2019 1:50 pm
Delvis overskyet  
Delvis overskyet  
   Vind: ØSØ 10.3 m/s
Vind: ØSØ 10.3 m/s
Temperatur: 6°C
Wind Chill: 1°C
Duggpunkt: -1°C
Luftfuktighet: 61%
Barometer: 981 hPa
Skyer: Partly Cloudy
Sikt: More than 10 km
Detaljer skyer: Noen skyer 4000 ft,
Delvis overskyet 13000 ft
ENZV 131250Z 12020KT 9999 FEW040 SCT130 06/M01 Q0981 NOSIG
ENCN - Kristiansand
Oppdatert: Dec 13 2019 1:50 pm
For det meste Overskyet  
For det meste Overskyet  
   Vind: ØSØ 4.6 m/s
Vind: ØSØ 4.6 m/s
Temperatur: 5°C
Wind Chill: 2°C
Duggpunkt: 0°C
Luftfuktighet: 70%
Barometer: 985 hPa
Skyer: Mostly Cloudy
Sikt: More than 10 km
Detaljer skyer: Delvis overskyet 2400 ft,
For det meste Overskyet 3500 ft
ENCN 131250Z 12009KT 090V160 9999 SCT024 BKN035 05/00 Q0985
ENBR - Bergen
Oppdatert: Dec 13 2019 1:50 pm
For det meste Overskyet  
For det meste Overskyet  
   Vind: varierende 1.5 m/s
Vind: varierende 1.5 m/s
Temperatur: 5°C
Wind Chill: 4°C
Duggpunkt: -5°C
Luftfuktighet: 49%
Barometer: 981 hPa
Skyer: Mostly Cloudy
Sikt: More than 10 km
Detaljer skyer: Noen skyer 4000 ft,
For det meste Overskyet 8200 ft
ENBR 131250Z VRB03KT 9999 FEW040 BKN082 05/M05 Q0981 NOSIG RMK WIND 1200FT 11015KT
ENGM - Oslo
Oppdatert: Dec 13 2019 1:50 pm
For det meste Overskyet  
For det meste Overskyet  
   Vind: Øst 3.1 m/s
Vind: Øst 3.1 m/s
Temperatur: 1°C
Wind Chill: -2°C
Duggpunkt: 0°C
Luftfuktighet: 93%
Barometer: 990 hPa
Skyer: Mostly Cloudy
Sikt: More than 10 km
Detaljer skyer: Noen skyer 100 ft,
Delvis overskyet 800 ft,
For det meste Overskyet 3000 ft
ENGM 131250Z 10006KT 070V130 9999 FEW001 SCT008 BKN030 01/00 Q0990 TEMPO BKN008
ENVA - Trondheim
Oppdatert: Dec 13 2019 1:50 pm
Klart  
Klart  
   Vind: SSØ 4.6 m/s<br />Gust to 4.6 m/s
Vind: SSØ 4.6 m/s
Gust to 4.6 m/s
Temperatur: 3°C
Wind Chill: -1°C
Duggpunkt: -4°C
Luftfuktighet: 60%
Barometer: 987 hPa
Sikt: More than 10 km
Detaljer skyer: Klart ft
ENVA 131250Z 16009G21KT 130V190 CAVOK 03/M04 Q0987 NOSIG RMK WIND 670FT 18020G32KT
ENTC - Tromsø
Oppdatert: Dec 13 2019 1:50 pm
Klart  
Klart  
   Vind: SV 3.1 m/s
Vind: SV 3.1 m/s
Temperatur: 0°C
Wind Chill: -3°C
Duggpunkt: -4°C
Luftfuktighet: 75%
Barometer: 988 hPa
Sikt: More than 10 km
Detaljer skyer: Klart ft
ENTC 131250Z 23006KT CAVOK M00/M04 Q0988 NOSIG RMK WIND 2600FT 18010KT

Script utviklet av  Saratoga-weather.org Tilpasset for tamplaten av  Weerstation Leuven

Du finner vår vær info også på:

European Weather Network

WeatherCloud

Weather Underground

AWEKAS

HAMweather, WeatherForYou, PWS Weather

Utrustning vi bruker:

vær-station
Davis VP2

vær-programmet
Weather Display

Davis VP2

Weather Display